Explorer - northwestern half: Past 24 Hour Conditions

 

Sentry Shoal - 46131

08:00 AM PDT 25 May 2015Buoy position: 49.92N 125.0W
Disclaimer

This table is a summary of hourly weather conditions for the past 24 hours.
Please note that these observations might not always be representative of weather conditions over their associated marine area.

Date / Time
(PDT)
Wind(knots) Wave height(m) Wave period(s) Pressure(kPa) Air tempC) Water tempC)
25 May 2015
8:00 WNW 10 gust 12 0.2 2.0 101.5 13 16
7:00 WNW 8 gust 10 0.2 2.0 101.5 13 16
6:00 WNW 8 gust 12 0.2 2.0 101.5 12 16
5:00 WNW 8 gust 12 0.3 3.0 101.5 13 16
4:00 WNW 10 gust 12 0.3 3.0 101.6 13 16
3:00 NW 10 gust 12 0.4 3.0 101.6 13 16
2:00 NNW 12 gust 14 0.4 3.0 101.5 13 16
1:00 NW 10 gust 12 0.4 3.0 101.5 14 16
0:00 NNW 14 gust 16 0.6 4.0 101.5 14 16
24 May 2015
23:00 N 16 gust 18 0.6 4.0 101.5 15 17
22:00 N 18 gust 21 0.4 3.0 101.5 16 17
21:00 NNE 4 gust 8 0.1 2.0 101.5 17 17
20:00 N 4 gust 6 0.1 2.0 101.4 18 17
19:00 SSE 6 gust 8 0.1 2.0 101.5 17 18
18:00 S 8 gust 8 0.1 2.0 101.5 17 18
17:00 S 8 gust 10 0.1 2.0 101.5 16 18
16:00 SSE 8 gust 10 0.1 2.0 101.6 16 18
15:00 SE 8 gust 8 N/A 4.0 101.7 16 18
14:00 ESE 4 gust 6 0.1 2.0 101.8 16 18
13:00 SSE 4 gust 4 0.1 2.0 101.9 16 18
12:00 calm 0.1 3.0 101.9 16 17
11:00 NNW 4 gust 6 0.1 2.0 102.0 14 16
10:00 NW 6 gust 8 0.3 2.0 102.0 14 15
9:00 NW 12 gust 14 0.3 2.0 102.0 13 16
8:00 NW 10 gust 12 0.3 3.0 102.1 13 16

Zoom-in to make a selection

Map of Pacific - South Coast marine weather areas Tsawwassen Ferry Terminal South Nomad - 46036 Sentry Shoal - 46131 South Brooks - 46132 Halibut Bank - 46146 South Moresby - 46147 South Hecate Strait - 46185 West Sea Otter - 46204 La Perouse Bank - 46206 East Dellwood - 46207 Discovery Island Esquimalt Harbour Kelp Reefs Malahat Race Rocks Lightstation Saturna Island Sheringham Point University of Victoria Victoria Gonzales Victoria Int'l Airport Ballenas Islands Campbell River Airport Comox Airport Entrance Island Fanny Island Nanaimo Airport Port Hardy Airport Sisters Islets Estevan Point Sartine Island Solander Island Tofino Airport Grief Point Powell River Airport Sechelt Cape St.James Bella Bella Airport Bella Coola Airport Cathedral Point Herbert Island Point Atkinson Sand Heads Lightstation Vancouver Harbour Vancouver Int'l Airport West Vancouver Port Alberni Howe Sound - Pam Rocks Squamish Airport
Legend:
buoy Buoy
land station Land Station

Pacific - South Coast Area

Another Region

What we are doing

Date modified: